sensor_id;sensor_type;location;lat;lon;timestamp;P1;durP1;ratioP1;P2;durP2;ratioP2
12480;SDS011;6305;48.398;11.762;2022-10-26T00:01:02;20.58;;;11.10;;
12480;SDS011;6305;48.398;11.762;2022-10-26T00:03:30;23.92;;;11.98;;
12480;SDS011;6305;48.398;11.762;2022-10-26T00:06:02;23.02;;;11.95;;
12480;SDS011;6305;48.398;11.762;2022-10-26T00:08:30;19.27;;;11.00;;
12480;SDS011;6305;48.398;11.762;2022-10-26T00:10:57;19.10;;;11.55;;
12480;SDS011;6305;48.398;11.762;2022-10-26T00:13:24;23.27;;;12.88;;
12480;SDS011;6305;48.398;11.762;2022-10-26T00:15:51;25.73;;;12.57;;
12480;SDS011;6305;48.398;11.762;2022-10-26T00:18:18;23.52;;;12.15;;
12480;SDS011;6305;48.398;11.762;2022-10-26T00:20:44;23.00;;;11.13;;
12480;SDS011;6305;48.398;11.762;2022-10-26T00:23:12;22.25;;;11.70;;
12480;SDS011;6305;48.398;11.762;2022-10-26T00:25:39;21.48;;;12.13;;
12480;SDS011;6305;48.398;11.762;2022-10-26T00:28:06;21.33;;;11.80;;
12480;SDS011;6305;48.398;11.762;2022-10-26T00:30:32;22.60;;;12.65;;
12480;SDS011;6305;48.398;11.762;2022-10-26T00:32:59;22.25;;;12.30;;
12480;SDS011;6305;48.398;11.762;2022-10-26T00:35:26;24.35;;;12.93;;
12480;SDS011;6305;48.398;11.762;2022-10-26T00:37:53;20.90;;;11.85;;
12480;SDS011;6305;48.398;11.762;2022-10-26T00:40:21;22.77;;;12.60;;
12480;SDS011;6305;48.398;11.762;2022-10-26T00:42:52;23.65;;;12.00;;
12480;SDS011;6305;48.398;11.762;2022-10-26T00:45:20;24.92;;;12.60;;
12480;SDS011;6305;48.398;11.762;2022-10-26T00:47:49;27.85;;;13.65;;
12480;SDS011;6305;48.398;11.762;2022-10-26T00:50:19;22.80;;;13.13;;
12480;SDS011;6305;48.398;11.762;2022-10-26T00:52:50;29.00;;;14.55;;
12480;SDS011;6305;48.398;11.762;2022-10-26T00:55:18;30.10;;;14.32;;
12480;SDS011;6305;48.398;11.762;2022-10-26T00:57:51;30.23;;;15.65;;
12480;SDS011;6305;48.398;11.762;2022-10-26T01:00:19;28.80;;;14.75;;
12480;SDS011;6305;48.398;11.762;2022-10-26T01:02:46;27.42;;;14.68;;
12480;SDS011;6305;48.398;11.762;2022-10-26T01:05:15;32.45;;;16.23;;
12480;SDS011;6305;48.398;11.762;2022-10-26T01:07:43;27.33;;;14.85;;
12480;SDS011;6305;48.398;11.762;2022-10-26T01:10:11;29.00;;;15.77;;
12480;SDS011;6305;48.398;11.762;2022-10-26T01:12:40;29.70;;;16.00;;
12480;SDS011;6305;48.398;11.762;2022-10-26T01:15:08;31.45;;;16.38;;
12480;SDS011;6305;48.398;11.762;2022-10-26T01:17:39;31.67;;;17.20;;
12480;SDS011;6305;48.398;11.762;2022-10-26T01:20:31;30.08;;;16.73;;
12480;SDS011;6305;48.398;11.762;2022-10-26T01:23:29;34.38;;;16.75;;
12480;SDS011;6305;48.398;11.762;2022-10-26T01:29:05;27.20;;;16.98;;
12480;SDS011;6305;48.398;11.762;2022-10-26T01:31:42;32.15;;;17.10;;
12480;SDS011;6305;48.398;11.762;2022-10-26T01:34:14;33.33;;;16.77;;
12480;SDS011;6305;48.398;11.762;2022-10-26T01:36:47;35.78;;;18.02;;
12480;SDS011;6305;48.398;11.762;2022-10-26T01:39:21;32.30;;;16.67;;
12480;SDS011;6305;48.398;11.762;2022-10-26T01:41:54;30.60;;;17.20;;
12480;SDS011;6305;48.398;11.762;2022-10-26T01:44:25;28.48;;;16.08;;
12480;SDS011;6305;48.398;11.762;2022-10-26T01:46:57;28.38;;;16.35;;
12480;SDS011;6305;48.398;11.762;2022-10-26T01:49:27;29.00;;;16.23;;
12480;SDS011;6305;48.398;11.762;2022-10-26T01:51:58;30.45;;;16.58;;
12480;SDS011;6305;48.398;11.762;2022-10-26T01:54:25;37.10;;;17.45;;
12480;SDS011;6305;48.398;11.762;2022-10-26T01:56:53;29.30;;;16.88;;
12480;SDS011;6305;48.398;11.762;2022-10-26T01:59:25;26.23;;;16.58;;
12480;SDS011;6305;48.398;11.762;2022-10-26T02:02:11;31.40;;;16.88;;
12480;SDS011;6305;48.398;11.762;2022-10-26T02:05:14;36.80;;;17.88;;
12480;SDS011;6305;48.398;11.762;2022-10-26T02:08:06;33.63;;;17.70;;
12480;SDS011;6305;48.398;11.762;2022-10-26T02:10:49;32.92;;;16.70;;
12480;SDS011;6305;48.398;11.762;2022-10-26T02:13:25;28.92;;;15.98;;
12480;SDS011;6305;48.398;11.762;2022-10-26T02:15:57;25.58;;;14.77;;
12480;SDS011;6305;48.398;11.762;2022-10-26T02:18:34;28.67;;;16.45;;
12480;SDS011;6305;48.398;11.762;2022-10-26T02:21:08;27.42;;;15.18;;
12480;SDS011;6305;48.398;11.762;2022-10-26T02:23:41;25.75;;;15.48;;
12480;SDS011;6305;48.398;11.762;2022-10-26T02:26:11;28.08;;;15.60;;
12480;SDS011;6305;48.398;11.762;2022-10-26T02:28:41;26.95;;;15.27;;
12480;SDS011;6305;48.398;11.762;2022-10-26T02:31:11;26.35;;;15.23;;
12480;SDS011;6305;48.398;11.762;2022-10-26T02:33:42;26.27;;;15.18;;
12480;SDS011;6305;48.398;11.762;2022-10-26T02:36:12;26.85;;;15.55;;
12480;SDS011;6305;48.398;11.762;2022-10-26T02:38:42;28.90;;;15.00;;
12480;SDS011;6305;48.398;11.762;2022-10-26T02:41:11;29.23;;;15.90;;
12480;SDS011;6305;48.398;11.762;2022-10-26T02:43:40;30.58;;;15.52;;
12480;SDS011;6305;48.398;11.762;2022-10-26T02:46:13;31.75;;;15.35;;
12480;SDS011;6305;48.398;11.762;2022-10-26T02:48:43;29.52;;;15.57;;
12480;SDS011;6305;48.398;11.762;2022-10-26T02:51:10;30.13;;;15.60;;
12480;SDS011;6305;48.398;11.762;2022-10-26T02:53:41;27.10;;;16.98;;
12480;SDS011;6305;48.398;11.762;2022-10-26T02:56:16;31.45;;;17.77;;
12480;SDS011;6305;48.398;11.762;2022-10-26T02:58:48;34.15;;;18.45;;
12480;SDS011;6305;48.398;11.762;2022-10-26T03:01:18;30.67;;;17.55;;
12480;SDS011;6305;48.398;11.762;2022-10-26T03:03:46;30.70;;;16.58;;
12480;SDS011;6305;48.398;11.762;2022-10-26T03:06:19;29.63;;;16.42;;
12480;SDS011;6305;48.398;11.762;2022-10-26T03:08:46;25.27;;;15.20;;
12480;SDS011;6305;48.398;11.762;2022-10-26T03:11:13;30.95;;;16.40;;
12480;SDS011;6305;48.398;11.762;2022-10-26T03:13:40;27.70;;;17.23;;
12480;SDS011;6305;48.398;11.762;2022-10-26T03:16:06;33.35;;;17.33;;
12480;SDS011;6305;48.398;11.762;2022-10-26T03:18:34;28.92;;;17.73;;
12480;SDS011;6305;48.398;11.762;2022-10-26T03:21:02;33.35;;;17.65;;
12480;SDS011;6305;48.398;11.762;2022-10-26T03:23:28;25.85;;;13.13;;
12480;SDS011;6305;48.398;11.762;2022-10-26T03:25:55;28.30;;;16.67;;
12480;SDS011;6305;48.398;11.762;2022-10-26T03:28:22;29.50;;;16.38;;
12480;SDS011;6305;48.398;11.762;2022-10-26T03:30:49;26.83;;;16.77;;
12480;SDS011;6305;48.398;11.762;2022-10-26T03:33:16;29.73;;;15.40;;
12480;SDS011;6305;48.398;11.762;2022-10-26T03:35:43;28.15;;;17.85;;
12480;SDS011;6305;48.398;11.762;2022-10-26T03:38:11;29.00;;;17.83;;
12480;SDS011;6305;48.398;11.762;2022-10-26T03:40:37;30.92;;;16.95;;
12480;SDS011;6305;48.398;11.762;2022-10-26T03:43:06;28.42;;;16.38;;
12480;SDS011;6305;48.398;11.762;2022-10-26T03:45:33;29.70;;;14.98;;
12480;SDS011;6305;48.398;11.762;2022-10-26T03:47:59;27.98;;;15.38;;
12480;SDS011;6305;48.398;11.762;2022-10-26T03:50:26;22.63;;;13.98;;
12480;SDS011;6305;48.398;11.762;2022-10-26T03:52:53;27.65;;;14.07;;
12480;SDS011;6305;48.398;11.762;2022-10-26T03:55:21;24.02;;;13.88;;
12480;SDS011;6305;48.398;11.762;2022-10-26T03:57:48;25.02;;;14.55;;
12480;SDS011;6305;48.398;11.762;2022-10-26T04:00:15;31.35;;;14.63;;
12480;SDS011;6305;48.398;11.762;2022-10-26T04:02:43;25.83;;;14.05;;
12480;SDS011;6305;48.398;11.762;2022-10-26T04:05:12;31.13;;;16.65;;
12480;SDS011;6305;48.398;11.762;2022-10-26T04:07:40;26.95;;;15.23;;
12480;SDS011;6305;48.398;11.762;2022-10-26T04:10:07;25.25;;;14.25;;
12480;SDS011;6305;48.398;11.762;2022-10-26T04:12:36;22.90;;;13.60;;
12480;SDS011;6305;48.398;11.762;2022-10-26T04:15:04;24.55;;;14.82;;
12480;SDS011;6305;48.398;11.762;2022-10-26T04:17:32;28.80;;;15.07;;
12480;SDS011;6305;48.398;11.762;2022-10-26T04:19:59;23.75;;;14.32;;
12480;SDS011;6305;48.398;11.762;2022-10-26T04:22:26;24.20;;;14.77;;
12480;SDS011;6305;48.398;11.762;2022-10-26T04:24:52;26.08;;;14.20;;
12480;SDS011;6305;48.398;11.762;2022-10-26T04:27:19;22.35;;;14.13;;
12480;SDS011;6305;48.398;11.762;2022-10-26T04:29:47;22.15;;;14.13;;
12480;SDS011;6305;48.398;11.762;2022-10-26T04:32:14;25.15;;;14.55;;
12480;SDS011;6305;48.398;11.762;2022-10-26T04:34:40;22.13;;;13.68;;
12480;SDS011;6305;48.398;11.762;2022-10-26T04:37:07;24.10;;;14.90;;
12480;SDS011;6305;48.398;11.762;2022-10-26T04:39:34;24.70;;;14.88;;
12480;SDS011;6305;48.398;11.762;2022-10-26T04:42:01;25.38;;;14.05;;
12480;SDS011;6305;48.398;11.762;2022-10-26T04:44:28;23.80;;;13.80;;
12480;SDS011;6305;48.398;11.762;2022-10-26T04:46:57;23.95;;;13.48;;
12480;SDS011;6305;48.398;11.762;2022-10-26T04:49:24;22.05;;;12.88;;
12480;SDS011;6305;48.398;11.762;2022-10-26T04:51:50;23.23;;;12.85;;
12480;SDS011;6305;48.398;11.762;2022-10-26T04:54:17;25.20;;;13.52;;
12480;SDS011;6305;48.398;11.762;2022-10-26T04:56:44;24.55;;;13.82;;
12480;SDS011;6305;48.398;11.762;2022-10-26T04:59:10;23.85;;;13.60;;
12480;SDS011;6305;48.398;11.762;2022-10-26T05:01:37;23.15;;;14.38;;
12480;SDS011;6305;48.398;11.762;2022-10-26T05:04:05;24.40;;;13.88;;
12480;SDS011;6305;48.398;11.762;2022-10-26T05:06:32;23.55;;;13.73;;
12480;SDS011;6305;48.398;11.762;2022-10-26T05:08:58;24.58;;;13.35;;
12480;SDS011;6305;48.398;11.762;2022-10-26T05:11:25;25.80;;;14.00;;
12480;SDS011;6305;48.398;11.762;2022-10-26T05:13:52;23.92;;;14.13;;
12480;SDS011;6305;48.398;11.762;2022-10-26T05:16:18;29.25;;;14.55;;
12480;SDS011;6305;48.398;11.762;2022-10-26T05:18:46;21.92;;;13.32;;
12480;SDS011;6305;48.398;11.762;2022-10-26T05:21:14;27.63;;;14.00;;
12480;SDS011;6305;48.398;11.762;2022-10-26T05:23:43;26.77;;;13.80;;
12480;SDS011;6305;48.398;11.762;2022-10-26T05:26:12;21.90;;;13.15;;
12480;SDS011;6305;48.398;11.762;2022-10-26T05:28:39;23.45;;;13.70;;
12480;SDS011;6305;48.398;11.762;2022-10-26T05:31:06;23.58;;;13.68;;
12480;SDS011;6305;48.398;11.762;2022-10-26T05:33:33;24.02;;;13.60;;
12480;SDS011;6305;48.398;11.762;2022-10-26T05:35:59;22.73;;;13.57;;
12480;SDS011;6305;48.398;11.762;2022-10-26T05:38:27;29.98;;;18.60;;
12480;SDS011;6305;48.398;11.762;2022-10-26T05:40:54;26.27;;;16.00;;
12480;SDS011;6305;48.398;11.762;2022-10-26T05:43:21;21.65;;;13.57;;
12480;SDS011;6305;48.398;11.762;2022-10-26T05:45:49;21.90;;;14.02;;
12480;SDS011;6305;48.398;11.762;2022-10-26T05:48:16;21.88;;;13.85;;
12480;SDS011;6305;48.398;11.762;2022-10-26T05:50:43;23.73;;;14.85;;
12480;SDS011;6305;48.398;11.762;2022-10-26T05:53:10;24.25;;;14.20;;
12480;SDS011;6305;48.398;11.762;2022-10-26T05:55:39;24.63;;;14.77;;
12480;SDS011;6305;48.398;11.762;2022-10-26T05:58:08;22.02;;;14.32;;
12480;SDS011;6305;48.398;11.762;2022-10-26T06:00:36;23.38;;;13.73;;
12480;SDS011;6305;48.398;11.762;2022-10-26T06:03:19;27.77;;;13.98;;
12480;SDS011;6305;48.398;11.762;2022-10-26T06:05:54;25.00;;;13.43;;
12480;SDS011;6305;48.398;11.762;2022-10-26T06:08:23;24.30;;;14.20;;
12480;SDS011;6305;48.398;11.762;2022-10-26T06:10:53;22.23;;;13.48;;
12480;SDS011;6305;48.398;11.762;2022-10-26T06:13:20;25.98;;;14.00;;
12480;SDS011;6305;48.398;11.762;2022-10-26T06:15:50;25.98;;;14.00;;
12480;SDS011;6305;48.398;11.762;2022-10-26T06:18:28;25.20;;;14.45;;
12480;SDS011;6305;48.398;11.762;2022-10-26T06:21:07;25.02;;;14.38;;
12480;SDS011;6305;48.398;11.762;2022-10-26T06:23:45;23.98;;;14.93;;
12480;SDS011;6305;48.398;11.762;2022-10-26T06:26:20;27.85;;;16.02;;
12480;SDS011;6305;48.398;11.762;2022-10-26T06:28:58;25.17;;;16.75;;
12480;SDS011;6305;48.398;11.762;2022-10-26T06:31:35;25.20;;;14.80;;
12480;SDS011;6305;48.398;11.762;2022-10-26T06:34:02;25.15;;;15.63;;
12480;SDS011;6305;48.398;11.762;2022-10-26T06:36:29;26.48;;;14.88;;
12480;SDS011;6305;48.398;11.762;2022-10-26T06:38:57;24.52;;;16.08;;
12480;SDS011;6305;48.398;11.762;2022-10-26T06:41:30;31.70;;;19.63;;
12480;SDS011;6305;48.398;11.762;2022-10-26T06:43:58;30.27;;;17.85;;
12480;SDS011;6305;48.398;11.762;2022-10-26T06:46:31;24.77;;;17.23;;
12480;SDS011;6305;48.398;11.762;2022-10-26T06:49:05;26.60;;;16.92;;
12480;SDS011;6305;48.398;11.762;2022-10-26T06:51:40;25.75;;;16.95;;
12480;SDS011;6305;48.398;11.762;2022-10-26T06:54:13;23.60;;;16.92;;
12480;SDS011;6305;48.398;11.762;2022-10-26T06:56:46;24.67;;;17.23;;
12480;SDS011;6305;48.398;11.762;2022-10-26T06:59:14;29.88;;;20.55;;
12480;SDS011;6305;48.398;11.762;2022-10-26T07:01:47;23.23;;;16.85;;
12480;SDS011;6305;48.398;11.762;2022-10-26T07:04:13;21.65;;;16.17;;
12480;SDS011;6305;48.398;11.762;2022-10-26T07:06:40;19.67;;;13.63;;
12480;SDS011;6305;48.398;11.762;2022-10-26T07:09:07;19.05;;;13.40;;
12480;SDS011;6305;48.398;11.762;2022-10-26T07:11:33;24.23;;;13.43;;
12480;SDS011;6305;48.398;11.762;2022-10-26T07:14:02;18.70;;;12.65;;
12480;SDS011;6305;48.398;11.762;2022-10-26T07:16:28;15.45;;;11.30;;
12480;SDS011;6305;48.398;11.762;2022-10-26T07:18:56;14.82;;;9.90;;
12480;SDS011;6305;48.398;11.762;2022-10-26T07:21:22;13.93;;;10.02;;
12480;SDS011;6305;48.398;11.762;2022-10-26T07:23:49;15.48;;;10.50;;
12480;SDS011;6305;48.398;11.762;2022-10-26T07:26:16;12.02;;;8.65;;
12480;SDS011;6305;48.398;11.762;2022-10-26T07:28:47;11.25;;;8.55;;
12480;SDS011;6305;48.398;11.762;2022-10-26T07:31:15;12.95;;;8.82;;
12480;SDS011;6305;48.398;11.762;2022-10-26T07:33:42;11.82;;;8.40;;
12480;SDS011;6305;48.398;11.762;2022-10-26T07:36:09;10.77;;;8.13;;
12480;SDS011;6305;48.398;11.762;2022-10-26T07:38:36;12.85;;;8.02;;
12480;SDS011;6305;48.398;11.762;2022-10-26T07:41:03;13.85;;;7.93;;
12480;SDS011;6305;48.398;11.762;2022-10-26T07:43:30;11.25;;;7.45;;
12480;SDS011;6305;48.398;11.762;2022-10-26T07:45:57;11.00;;;6.90;;
12480;SDS011;6305;48.398;11.762;2022-10-26T07:48:25;12.30;;;7.03;;
12480;SDS011;6305;48.398;11.762;2022-10-26T07:50:52;10.95;;;5.88;;
12480;SDS011;6305;48.398;11.762;2022-10-26T07:53:19;8.55;;;6.32;;
12480;SDS011;6305;48.398;11.762;2022-10-26T07:55:51;7.63;;;6.05;;
12480;SDS011;6305;48.398;11.762;2022-10-26T07:58:18;8.25;;;6.07;;
12480;SDS011;6305;48.398;11.762;2022-10-26T08:00:47;8.02;;;6.03;;
12480;SDS011;6305;48.398;11.762;2022-10-26T08:03:14;8.50;;;6.32;;
12480;SDS011;6305;48.398;11.762;2022-10-26T08:05:44;8.15;;;5.80;;
12480;SDS011;6305;48.398;11.762;2022-10-26T08:08:11;6.05;;;5.43;;
12480;SDS011;6305;48.398;11.762;2022-10-26T08:10:40;7.88;;;3.90;;
12480;SDS011;6305;48.398;11.762;2022-10-26T08:13:07;3.33;;;3.00;;
12480;SDS011;6305;48.398;11.762;2022-10-26T08:15:34;5.35;;;3.63;;
12480;SDS011;6305;48.398;11.762;2022-10-26T08:18:01;5.28;;;3.63;;
12480;SDS011;6305;48.398;11.762;2022-10-26T08:20:28;9.07;;;4.03;;
12480;SDS011;6305;48.398;11.762;2022-10-26T08:22:56;5.93;;;4.00;;
12480;SDS011;6305;48.398;11.762;2022-10-26T08:25:23;6.93;;;3.90;;
12480;SDS011;6305;48.398;11.762;2022-10-26T08:27:50;6.97;;;4.32;;
12480;SDS011;6305;48.398;11.762;2022-10-26T08:30:17;12.68;;;6.57;;
12480;SDS011;6305;48.398;11.762;2022-10-26T08:32:43;5.05;;;3.65;;
12480;SDS011;6305;48.398;11.762;2022-10-26T08:35:10;3.58;;;2.67;;
12480;SDS011;6305;48.398;11.762;2022-10-26T08:37:37;4.53;;;2.80;;
12480;SDS011;6305;48.398;11.762;2022-10-26T08:40:05;5.47;;;2.88;;
12480;SDS011;6305;48.398;11.762;2022-10-26T08:42:37;6.53;;;3.58;;
12480;SDS011;6305;48.398;11.762;2022-10-26T08:45:07;4.75;;;2.97;;
12480;SDS011;6305;48.398;11.762;2022-10-26T08:47:50;4.85;;;2.80;;
12480;SDS011;6305;48.398;11.762;2022-10-26T08:50:23;3.38;;;3.08;;
12480;SDS011;6305;48.398;11.762;2022-10-26T08:52:52;5.97;;;3.42;;
12480;SDS011;6305;48.398;11.762;2022-10-26T08:55:31;6.45;;;3.00;;
12480;SDS011;6305;48.398;11.762;2022-10-26T08:58:04;5.40;;;3.10;;
12480;SDS011;6305;48.398;11.762;2022-10-26T09:00:35;5.50;;;2.58;;
12480;SDS011;6305;48.398;11.762;2022-10-26T09:03:07;3.60;;;2.20;;
12480;SDS011;6305;48.398;11.762;2022-10-26T09:05:42;3.65;;;2.45;;
12480;SDS011;6305;48.398;11.762;2022-10-26T09:08:19;2.80;;;2.30;;
12480;SDS011;6305;48.398;11.762;2022-10-26T09:10:57;3.78;;;2.42;;
12480;SDS011;6305;48.398;11.762;2022-10-26T09:13:35;6.22;;;2.65;;
12480;SDS011;6305;48.398;11.762;2022-10-26T09:16:12;5.60;;;3.45;;
12480;SDS011;6305;48.398;11.762;2022-10-26T09:18:50;2.70;;;2.30;;
12480;SDS011;6305;48.398;11.762;2022-10-26T09:21:29;2.65;;;1.80;;
12480;SDS011;6305;48.398;11.762;2022-10-26T09:24:05;2.67;;;1.98;;
12480;SDS011;6305;48.398;11.762;2022-10-26T09:26:41;3.08;;;1.70;;
12480;SDS011;6305;48.398;11.762;2022-10-26T09:29:18;2.70;;;1.60;;
12480;SDS011;6305;48.398;11.762;2022-10-26T09:31:46;1.65;;;1.50;;
12480;SDS011;6305;48.398;11.762;2022-10-26T09:34:17;2.38;;;1.80;;
12480;SDS011;6305;48.398;11.762;2022-10-26T09:36:50;2.55;;;1.77;;
12480;SDS011;6305;48.398;11.762;2022-10-26T09:39:21;3.42;;;1.77;;
12480;SDS011;6305;48.398;11.762;2022-10-26T09:41:56;3.67;;;1.98;;
12480;SDS011;6305;48.398;11.762;2022-10-26T09:44:24;2.95;;;1.60;;
12480;SDS011;6305;48.398;11.762;2022-10-26T09:46:57;3.38;;;1.42;;
12480;SDS011;6305;48.398;11.762;2022-10-26T09:49:32;3.55;;;1.80;;
12480;SDS011;6305;48.398;11.762;2022-10-26T09:52:06;5.93;;;2.08;;
12480;SDS011;6305;48.398;11.762;2022-10-26T09:54:33;3.60;;;1.90;;
12480;SDS011;6305;48.398;11.762;2022-10-26T09:57:01;1.98;;;1.40;;
12480;SDS011;6305;48.398;11.762;2022-10-26T09:59:28;5.10;;;1.73;;
12480;SDS011;6305;48.398;11.762;2022-10-26T10:01:58;2.67;;;1.65;;
12480;SDS011;6305;48.398;11.762;2022-10-26T10:04:25;4.72;;;1.88;;
12480;SDS011;6305;48.398;11.762;2022-10-26T10:07:02;3.70;;;1.85;;
12480;SDS011;6305;48.398;11.762;2022-10-26T10:09:37;3.47;;;1.95;;
12480;SDS011;6305;48.398;11.762;2022-10-26T10:12:15;2.95;;;1.65;;
12480;SDS011;6305;48.398;11.762;2022-10-26T10:14:53;3.40;;;1.70;;
12480;SDS011;6305;48.398;11.762;2022-10-26T10:17:21;2.60;;;1.85;;
12480;SDS011;6305;48.398;11.762;2022-10-26T10:19:49;8.80;;;2.30;;
12480;SDS011;6305;48.398;11.762;2022-10-26T10:22:17;5.38;;;2.35;;
12480;SDS011;6305;48.398;11.762;2022-10-26T10:24:52;4.50;;;2.47;;
12480;SDS011;6305;48.398;11.762;2022-10-26T10:27:22;3.45;;;2.28;;
12480;SDS011;6305;48.398;11.762;2022-10-26T10:29:50;2.08;;;1.83;;
12480;SDS011;6305;48.398;11.762;2022-10-26T10:32:19;5.35;;;1.90;;
12480;SDS011;6305;48.398;11.762;2022-10-26T10:34:48;2.28;;;1.80;;
12480;SDS011;6305;48.398;11.762;2022-10-26T10:37:21;2.70;;;1.60;;
12480;SDS011;6305;48.398;11.762;2022-10-26T10:39:54;5.25;;;1.85;;
12480;SDS011;6305;48.398;11.762;2022-10-26T10:42:24;5.18;;;2.10;;
12480;SDS011;6305;48.398;11.762;2022-10-26T10:44:55;2.88;;;1.60;;
12480;SDS011;6305;48.398;11.762;2022-10-26T10:47:23;2.97;;;1.65;;
12480;SDS011;6305;48.398;11.762;2022-10-26T10:49:53;3.63;;;1.92;;
12480;SDS011;6305;48.398;11.762;2022-10-26T10:52:26;3.88;;;1.85;;
12480;SDS011;6305;48.398;11.762;2022-10-26T10:54:59;4.80;;;1.70;;
12480;SDS011;6305;48.398;11.762;2022-10-26T10:57:42;3.05;;;1.77;;
12480;SDS011;6305;48.398;11.762;2022-10-26T11:00:28;4.60;;;2.00;;
12480;SDS011;6305;48.398;11.762;2022-10-26T11:03:03;3.85;;;1.80;;
12480;SDS011;6305;48.398;11.762;2022-10-26T11:05:46;4.65;;;1.80;;
12480;SDS011;6305;48.398;11.762;2022-10-26T11:08:25;4.47;;;1.67;;
12480;SDS011;6305;48.398;11.762;2022-10-26T11:10:57;3.08;;;1.65;;
12480;SDS011;6305;48.398;11.762;2022-10-26T11:13:28;3.03;;;1.63;;
12480;SDS011;6305;48.398;11.762;2022-10-26T11:16:00;3.35;;;1.65;;
12480;SDS011;6305;48.398;11.762;2022-10-26T11:18:30;4.90;;;1.50;;
12480;SDS011;6305;48.398;11.762;2022-10-26T11:21:02;3.17;;;1.40;;
12480;SDS011;6305;48.398;11.762;2022-10-26T11:23:37;3.67;;;1.45;;
12480;SDS011;6305;48.398;11.762;2022-10-26T11:26:09;2.25;;;1.40;;
12480;SDS011;6305;48.398;11.762;2022-10-26T11:28:43;2.90;;;1.50;;
12480;SDS011;6305;48.398;11.762;2022-10-26T11:31:14;2.67;;;1.30;;
12480;SDS011;6305;48.398;11.762;2022-10-26T11:33:50;3.92;;;1.58;;
12480;SDS011;6305;48.398;11.762;2022-10-26T11:36:26;4.53;;;1.70;;
12480;SDS011;6305;48.398;11.762;2022-10-26T11:38:56;2.38;;;1.75;;
12480;SDS011;6305;48.398;11.762;2022-10-26T11:41:28;3.47;;;1.60;;
12480;SDS011;6305;48.398;11.762;2022-10-26T11:44:01;3.90;;;1.50;;
12480;SDS011;6305;48.398;11.762;2022-10-26T11:46:37;2.40;;;1.65;;
12480;SDS011;6305;48.398;11.762;2022-10-26T11:49:09;4.55;;;1.58;;
12480;SDS011;6305;48.398;11.762;2022-10-26T11:51:40;2.25;;;1.58;;
12480;SDS011;6305;48.398;11.762;2022-10-26T11:54:12;2.28;;;1.25;;
12480;SDS011;6305;48.398;11.762;2022-10-26T11:56:46;3.17;;;1.42;;
12480;SDS011;6305;48.398;11.762;2022-10-26T11:59:17;4.70;;;1.70;;
12480;SDS011;6305;48.398;11.762;2022-10-26T12:01:46;4.63;;;1.50;;
12480;SDS011;6305;48.398;11.762;2022-10-26T12:04:14;6.10;;;1.80;;
12480;SDS011;6305;48.398;11.762;2022-10-26T12:06:42;3.67;;;1.63;;
12480;SDS011;6305;48.398;11.762;2022-10-26T12:09:11;2.17;;;1.50;;
12480;SDS011;6305;48.398;11.762;2022-10-26T12:11:42;4.97;;;1.60;;
12480;SDS011;6305;48.398;11.762;2022-10-26T12:14:14;5.53;;;1.55;;
12480;SDS011;6305;48.398;11.762;2022-10-26T12:16:51;3.90;;;1.63;;
12480;SDS011;6305;48.398;11.762;2022-10-26T12:19:27;3.78;;;1.50;;
12480;SDS011;6305;48.398;11.762;2022-10-26T12:21:59;2.28;;;1.38;;
12480;SDS011;6305;48.398;11.762;2022-10-26T12:24:27;3.15;;;1.25;;
12480;SDS011;6305;48.398;11.762;2022-10-26T12:26:58;4.43;;;1.58;;
12480;SDS011;6305;48.398;11.762;2022-10-26T12:29:33;3.22;;;1.40;;
12480;SDS011;6305;48.398;11.762;2022-10-26T12:35:27;3.47;;;1.40;;
12480;SDS011;6305;48.398;11.762;2022-10-26T12:38:25;3.03;;;1.50;;
12480;SDS011;6305;48.398;11.762;2022-10-26T12:41:12;4.78;;;1.50;;
12480;SDS011;6305;48.398;11.762;2022-10-26T12:43:44;3.22;;;1.50;;
12480;SDS011;6305;48.398;11.762;2022-10-26T12:49:17;4.13;;;1.50;;
12480;SDS011;6305;48.398;11.762;2022-10-26T12:52:24;3.33;;;1.90;;
12480;SDS011;6305;48.398;11.762;2022-10-26T13:04:22;3.83;;;1.45;;
12480;SDS011;6305;48.398;11.762;2022-10-26T13:07:16;3.35;;;1.65;;
12480;SDS011;6305;48.398;11.762;2022-10-26T13:09:51;1.83;;;1.50;;
12480;SDS011;6305;48.398;11.762;2022-10-26T13:12:21;2.55;;;1.40;;
12480;SDS011;6305;48.398;11.762;2022-10-26T13:14:52;3.33;;;1.55;;
12480;SDS011;6305;48.398;11.762;2022-10-26T13:17:24;3.65;;;1.92;;
12480;SDS011;6305;48.398;11.762;2022-10-26T13:19:56;2.65;;;1.65;;
12480;SDS011;6305;48.398;11.762;2022-10-26T13:22:24;7.07;;;2.17;;
12480;SDS011;6305;48.398;11.762;2022-10-26T13:24:52;3.80;;;1.77;;
12480;SDS011;6305;48.398;11.762;2022-10-26T13:27:26;3.35;;;1.70;;
12480;SDS011;6305;48.398;11.762;2022-10-26T13:33:21;4.70;;;2.00;;
12480;SDS011;6305;48.398;11.762;2022-10-26T13:35:53;4.13;;;1.55;;
12480;SDS011;6305;48.398;11.762;2022-10-26T13:38:22;4.22;;;1.85;;
12480;SDS011;6305;48.398;11.762;2022-10-26T13:40:57;3.55;;;1.88;;
12480;SDS011;6305;48.398;11.762;2022-10-26T13:43:30;2.78;;;1.70;;
12480;SDS011;6305;48.398;11.762;2022-10-26T13:45:58;3.72;;;1.85;;
12480;SDS011;6305;48.398;11.762;2022-10-26T13:48:35;4.07;;;1.65;;
12480;SDS011;6305;48.398;11.762;2022-10-26T13:51:08;2.85;;;1.80;;
12480;SDS011;6305;48.398;11.762;2022-10-26T13:53:42;3.85;;;1.90;;
12480;SDS011;6305;48.398;11.762;2022-10-26T13:56:16;3.35;;;1.75;;
12480;SDS011;6305;48.398;11.762;2022-10-26T13:58:51;5.57;;;1.90;;
12480;SDS011;6305;48.398;11.762;2022-10-26T14:01:24;4.30;;;2.25;;
12480;SDS011;6305;48.398;11.762;2022-10-26T14:03:53;3.35;;;1.73;;
12480;SDS011;6305;48.398;11.762;2022-10-26T14:06:22;4.53;;;1.98;;
12480;SDS011;6305;48.398;11.762;2022-10-26T14:08:53;3.78;;;1.75;;
12480;SDS011;6305;48.398;11.762;2022-10-26T14:11:24;6.95;;;2.20;;
12480;SDS011;6305;48.398;11.762;2022-10-26T14:13:56;3.53;;;1.73;;
12480;SDS011;6305;48.398;11.762;2022-10-26T14:16:23;3.65;;;1.75;;
12480;SDS011;6305;48.398;11.762;2022-10-26T14:18:55;4.70;;;2.00;;
12480;SDS011;6305;48.398;11.762;2022-10-26T14:21:22;3.50;;;1.75;;
12480;SDS011;6305;48.398;11.762;2022-10-26T14:23:50;2.97;;;1.60;;
12480;SDS011;6305;48.398;11.762;2022-10-26T14:26:20;4.75;;;1.90;;
12480;SDS011;6305;48.398;11.762;2022-10-26T14:28:49;5.55;;;2.20;;
12480;SDS011;6305;48.398;11.762;2022-10-26T14:31:20;4.97;;;1.90;;
12480;SDS011;6305;48.398;11.762;2022-10-26T14:33:48;6.13;;;1.70;;
12480;SDS011;6305;48.398;11.762;2022-10-26T14:36:17;4.43;;;1.80;;
12480;SDS011;6305;48.398;11.762;2022-10-26T14:38:46;4.28;;;2.00;;
12480;SDS011;6305;48.398;11.762;2022-10-26T14:41:18;4.68;;;1.83;;
12480;SDS011;6305;48.398;11.762;2022-10-26T14:43:46;6.47;;;2.05;;
12480;SDS011;6305;48.398;11.762;2022-10-26T14:46:13;6.00;;;2.47;;
12480;SDS011;6305;48.398;11.762;2022-10-26T14:48:51;8.93;;;2.03;;
12480;SDS011;6305;48.398;11.762;2022-10-26T14:51:24;4.53;;;2.10;;
12480;SDS011;6305;48.398;11.762;2022-10-26T14:53:52;5.35;;;2.33;;
12480;SDS011;6305;48.398;11.762;2022-10-26T14:56:23;5.25;;;2.22;;
12480;SDS011;6305;48.398;11.762;2022-10-26T14:58:52;4.90;;;1.95;;
12480;SDS011;6305;48.398;11.762;2022-10-26T15:01:27;4.22;;;1.63;;
12480;SDS011;6305;48.398;11.762;2022-10-26T15:03:56;4.22;;;1.98;;
12480;SDS011;6305;48.398;11.762;2022-10-26T15:06:33;5.45;;;2.45;;
12480;SDS011;6305;48.398;11.762;2022-10-26T15:09:04;5.50;;;1.80;;
12480;SDS011;6305;48.398;11.762;2022-10-26T15:11:31;4.70;;;2.30;;
12480;SDS011;6305;48.398;11.762;2022-10-26T15:13:59;5.53;;;1.77;;
12480;SDS011;6305;48.398;11.762;2022-10-26T15:16:27;4.10;;;2.03;;